sensor_id;sensor_type;location;lat;lon;timestamp;temperature;humidity
76333;DHT22;71254;53.010;6.508;2023-07-20T00:01:26;15.30;89.90
76333;DHT22;71254;53.010;6.508;2023-07-20T00:03:52;15.30;89.70
76333;DHT22;71254;53.010;6.508;2023-07-20T00:06:24;15.30;89.70
76333;DHT22;71254;53.010;6.508;2023-07-20T00:08:51;15.30;89.60
76333;DHT22;71254;53.010;6.508;2023-07-20T00:11:17;15.30;89.60
76333;DHT22;71254;53.010;6.508;2023-07-20T00:13:42;15.30;89.50
76333;DHT22;71254;53.010;6.508;2023-07-20T00:16:08;15.30;89.50
76333;DHT22;71254;53.010;6.508;2023-07-20T00:18:34;15.30;90.10
76333;DHT22;71254;53.010;6.508;2023-07-20T00:20:59;15.30;90.20
76333;DHT22;71254;53.010;6.508;2023-07-20T00:23:25;15.30;90.40
76333;DHT22;71254;53.010;6.508;2023-07-20T00:25:51;15.30;90.00
76333;DHT22;71254;53.010;6.508;2023-07-20T00:28:17;15.30;90.20
76333;DHT22;71254;53.010;6.508;2023-07-20T00:30:42;15.30;90.30
76333;DHT22;71254;53.010;6.508;2023-07-20T00:33:12;15.30;90.20
76333;DHT22;71254;53.010;6.508;2023-07-20T00:35:38;15.30;90.30
76333;DHT22;71254;53.010;6.508;2023-07-20T00:38:04;15.30;90.30
76333;DHT22;71254;53.010;6.508;2023-07-20T00:40:37;15.30;90.40
76333;DHT22;71254;53.010;6.508;2023-07-20T00:43:03;15.30;90.50
76333;DHT22;71254;53.010;6.508;2023-07-20T00:45:29;15.30;90.50
76333;DHT22;71254;53.010;6.508;2023-07-20T00:47:55;15.30;90.50
76333;DHT22;71254;53.010;6.508;2023-07-20T00:50:22;15.30;90.50
76333;DHT22;71254;53.010;6.508;2023-07-20T00:52:48;15.20;90.50
76333;DHT22;71254;53.010;6.508;2023-07-20T00:55:14;15.20;90.50
76333;DHT22;71254;53.010;6.508;2023-07-20T00:57:40;15.10;90.30
76333;DHT22;71254;53.010;6.508;2023-07-20T01:00:06;15.00;90.30
76333;DHT22;71254;53.010;6.508;2023-07-20T01:02:32;15.00;90.50
76333;DHT22;71254;53.010;6.508;2023-07-20T01:04:58;14.90;90.50
76333;DHT22;71254;53.010;6.508;2023-07-20T01:07:28;14.80;90.60
76333;DHT22;71254;53.010;6.508;2023-07-20T01:10:25;14.80;90.60
76333;DHT22;71254;53.010;6.508;2023-07-20T01:12:55;14.70;90.80
76333;DHT22;71254;53.010;6.508;2023-07-20T01:15:20;14.60;90.70
76333;DHT22;71254;53.010;6.508;2023-07-20T01:17:46;14.50;90.80
76333;DHT22;71254;53.010;6.508;2023-07-20T01:20:17;14.50;90.90
76333;DHT22;71254;53.010;6.508;2023-07-20T01:26:07;14.30;91.10
76333;DHT22;71254;53.010;6.508;2023-07-20T01:31:39;14.20;91.40
76333;DHT22;71254;53.010;6.508;2023-07-20T01:34:09;14.20;91.40
76333;DHT22;71254;53.010;6.508;2023-07-20T01:36:37;14.10;91.50
76333;DHT22;71254;53.010;6.508;2023-07-20T01:39:03;14.10;91.60
76333;DHT22;71254;53.010;6.508;2023-07-20T01:41:30;14.00;91.60
76333;DHT22;71254;53.010;6.508;2023-07-20T01:43:59;14.00;91.60
76333;DHT22;71254;53.010;6.508;2023-07-20T01:46:25;13.90;91.60
76333;DHT22;71254;53.010;6.508;2023-07-20T01:48:50;13.90;91.50
76333;DHT22;71254;53.010;6.508;2023-07-20T01:51:16;13.80;91.60
76333;DHT22;71254;53.010;6.508;2023-07-20T01:53:43;13.80;91.60
76333;DHT22;71254;53.010;6.508;2023-07-20T01:56:09;13.70;91.70
76333;DHT22;71254;53.010;6.508;2023-07-20T01:58:34;13.80;91.80
76333;DHT22;71254;53.010;6.508;2023-07-20T02:01:00;13.60;91.70
76333;DHT22;71254;53.010;6.508;2023-07-20T02:03:27;13.60;91.80
76333;DHT22;71254;53.010;6.508;2023-07-20T02:05:53;13.60;91.70
76333;DHT22;71254;53.010;6.508;2023-07-20T02:08:18;13.60;91.70
76333;DHT22;71254;53.010;6.508;2023-07-20T02:10:48;13.50;91.70
76333;DHT22;71254;53.010;6.508;2023-07-20T02:13:14;13.50;91.80
76333;DHT22;71254;53.010;6.508;2023-07-20T02:15:39;13.50;91.80
76333;DHT22;71254;53.010;6.508;2023-07-20T02:18:06;13.40;91.80
76333;DHT22;71254;53.010;6.508;2023-07-20T02:20:31;13.30;91.80
76333;DHT22;71254;53.010;6.508;2023-07-20T02:22:57;13.30;91.90
76333;DHT22;71254;53.010;6.508;2023-07-20T02:25:22;13.20;92.00
76333;DHT22;71254;53.010;6.508;2023-07-20T02:27:48;13.20;92.00
76333;DHT22;71254;53.010;6.508;2023-07-20T02:30:14;13.10;92.10
76333;DHT22;71254;53.010;6.508;2023-07-20T02:32:41;13.10;92.20
76333;DHT22;71254;53.010;6.508;2023-07-20T02:35:11;13.10;92.20
76333;DHT22;71254;53.010;6.508;2023-07-20T02:37:37;13.00;92.20
76333;DHT22;71254;53.010;6.508;2023-07-20T02:40:03;13.00;92.20
76333;DHT22;71254;53.010;6.508;2023-07-20T02:42:30;13.00;92.20
76333;DHT22;71254;53.010;6.508;2023-07-20T02:44:55;13.00;92.20
76333;DHT22;71254;53.010;6.508;2023-07-20T02:47:21;12.90;91.80
76333;DHT22;71254;53.010;6.508;2023-07-20T02:49:47;12.80;91.60
76333;DHT22;71254;53.010;6.508;2023-07-20T02:52:12;12.80;91.60
76333;DHT22;71254;53.010;6.508;2023-07-20T02:54:38;12.70;91.50
76333;DHT22;71254;53.010;6.508;2023-07-20T02:57:04;12.60;91.60
76333;DHT22;71254;53.010;6.508;2023-07-20T02:59:29;12.50;91.90
76333;DHT22;71254;53.010;6.508;2023-07-20T03:01:55;12.50;92.10
76333;DHT22;71254;53.010;6.508;2023-07-20T03:04:21;12.50;92.10
76333;DHT22;71254;53.010;6.508;2023-07-20T03:06:47;12.50;92.10
76333;DHT22;71254;53.010;6.508;2023-07-20T03:09:12;12.50;92.10
76333;DHT22;71254;53.010;6.508;2023-07-20T03:11:38;12.50;92.20
76333;DHT22;71254;53.010;6.508;2023-07-20T03:14:04;12.50;92.50
76333;DHT22;71254;53.010;6.508;2023-07-20T03:16:29;12.50;92.50
76333;DHT22;71254;53.010;6.508;2023-07-20T03:18:58;12.40;92.20
76333;DHT22;71254;53.010;6.508;2023-07-20T03:21:25;12.40;92.20
76333;DHT22;71254;53.010;6.508;2023-07-20T03:23:50;12.40;92.30
76333;DHT22;71254;53.010;6.508;2023-07-20T03:26:16;12.40;92.30
76333;DHT22;71254;53.010;6.508;2023-07-20T03:28:42;12.40;92.30
76333;DHT22;71254;53.010;6.508;2023-07-20T03:31:07;12.40;92.30
76333;DHT22;71254;53.010;6.508;2023-07-20T03:33:34;12.40;92.40
76333;DHT22;71254;53.010;6.508;2023-07-20T03:35:59;12.40;92.40
76333;DHT22;71254;53.010;6.508;2023-07-20T03:38:26;12.30;92.30
76333;DHT22;71254;53.010;6.508;2023-07-20T03:40:53;12.30;92.30
76333;DHT22;71254;53.010;6.508;2023-07-20T03:43:20;12.30;92.40
76333;DHT22;71254;53.010;6.508;2023-07-20T03:45:47;12.30;92.50
76333;DHT22;71254;53.010;6.508;2023-07-20T03:48:15;12.30;92.50
76333;DHT22;71254;53.010;6.508;2023-07-20T03:50:40;12.30;92.60
76333;DHT22;71254;53.010;6.508;2023-07-20T03:53:06;12.20;92.60
76333;DHT22;71254;53.010;6.508;2023-07-20T03:55:32;12.30;92.70
76333;DHT22;71254;53.010;6.508;2023-07-20T03:57:57;12.30;92.70
76333;DHT22;71254;53.010;6.508;2023-07-20T04:00:23;12.20;92.70
76333;DHT22;71254;53.010;6.508;2023-07-20T04:02:49;12.30;92.70
76333;DHT22;71254;53.010;6.508;2023-07-20T04:05:15;12.30;92.80
76333;DHT22;71254;53.010;6.508;2023-07-20T04:07:41;12.30;93.10
76333;DHT22;71254;53.010;6.508;2023-07-20T04:10:07;12.30;92.80
76333;DHT22;71254;53.010;6.508;2023-07-20T04:12:32;12.30;92.80
76333;DHT22;71254;53.010;6.508;2023-07-20T04:14:58;12.30;92.70
76333;DHT22;71254;53.010;6.508;2023-07-20T04:17:24;12.40;92.70
76333;DHT22;71254;53.010;6.508;2023-07-20T04:19:49;12.30;92.70
76333;DHT22;71254;53.010;6.508;2023-07-20T04:22:15;12.40;92.70
76333;DHT22;71254;53.010;6.508;2023-07-20T04:24:42;12.40;92.60
76333;DHT22;71254;53.010;6.508;2023-07-20T04:27:08;12.40;92.60
76333;DHT22;71254;53.010;6.508;2023-07-20T04:29:34;12.40;92.60
76333;DHT22;71254;53.010;6.508;2023-07-20T04:31:59;12.50;92.60
76333;DHT22;71254;53.010;6.508;2023-07-20T04:34:25;12.50;92.50
76333;DHT22;71254;53.010;6.508;2023-07-20T04:36:51;12.50;92.40
76333;DHT22;71254;53.010;6.508;2023-07-20T04:39:16;12.50;92.40
76333;DHT22;71254;53.010;6.508;2023-07-20T04:41:42;12.60;92.40
76333;DHT22;71254;53.010;6.508;2023-07-20T04:44:08;12.60;92.40
76333;DHT22;71254;53.010;6.508;2023-07-20T04:46:33;12.70;92.40
76333;DHT22;71254;53.010;6.508;2023-07-20T04:48:59;12.70;92.40
76333;DHT22;71254;53.010;6.508;2023-07-20T04:51:25;12.70;92.30
76333;DHT22;71254;53.010;6.508;2023-07-20T04:53:50;12.80;92.30
76333;DHT22;71254;53.010;6.508;2023-07-20T04:56:16;12.90;92.20
76333;DHT22;71254;53.010;6.508;2023-07-20T04:58:42;12.90;92.20
76333;DHT22;71254;53.010;6.508;2023-07-20T05:01:08;13.00;92.10
76333;DHT22;71254;53.010;6.508;2023-07-20T05:03:34;13.10;92.10
76333;DHT22;71254;53.010;6.508;2023-07-20T05:05:59;13.10;92.00
76333;DHT22;71254;53.010;6.508;2023-07-20T05:08:25;13.20;92.00
76333;DHT22;71254;53.010;6.508;2023-07-20T05:10:51;13.20;91.90
76333;DHT22;71254;53.010;6.508;2023-07-20T05:13:16;13.30;91.90
76333;DHT22;71254;53.010;6.508;2023-07-20T05:15:42;13.40;91.90
76333;DHT22;71254;53.010;6.508;2023-07-20T05:18:08;13.40;91.80
76333;DHT22;71254;53.010;6.508;2023-07-20T05:20:34;13.50;91.80
76333;DHT22;71254;53.010;6.508;2023-07-20T05:23:00;13.60;91.70
76333;DHT22;71254;53.010;6.508;2023-07-20T05:25:26;13.70;91.70
76333;DHT22;71254;53.010;6.508;2023-07-20T05:27:52;13.70;91.60
76333;DHT22;71254;53.010;6.508;2023-07-20T05:30:18;13.80;91.60
76333;DHT22;71254;53.010;6.508;2023-07-20T05:32:44;13.90;91.50
76333;DHT22;71254;53.010;6.508;2023-07-20T05:35:13;13.90;91.40
76333;DHT22;71254;53.010;6.508;2023-07-20T05:37:39;13.90;91.50
76333;DHT22;71254;53.010;6.508;2023-07-20T05:40:05;13.90;91.40
76333;DHT22;71254;53.010;6.508;2023-07-20T05:42:33;13.90;91.40
76333;DHT22;71254;53.010;6.508;2023-07-20T05:44:59;14.00;91.60
76333;DHT22;71254;53.010;6.508;2023-07-20T05:47:24;14.00;91.70
76333;DHT22;71254;53.010;6.508;2023-07-20T05:49:50;14.10;91.80
76333;DHT22;71254;53.010;6.508;2023-07-20T05:52:16;14.30;91.80
76333;DHT22;71254;53.010;6.508;2023-07-20T05:54:41;14.40;91.70
76333;DHT22;71254;53.010;6.508;2023-07-20T05:57:07;14.50;91.70
76333;DHT22;71254;53.010;6.508;2023-07-20T05:59:33;14.60;91.70
76333;DHT22;71254;53.010;6.508;2023-07-20T06:01:59;14.70;91.70
76333;DHT22;71254;53.010;6.508;2023-07-20T06:04:24;14.80;91.60
76333;DHT22;71254;53.010;6.508;2023-07-20T06:06:50;15.00;91.40
76333;DHT22;71254;53.010;6.508;2023-07-20T06:09:15;15.10;91.20
76333;DHT22;71254;53.010;6.508;2023-07-20T06:11:41;15.20;90.90
76333;DHT22;71254;53.010;6.508;2023-07-20T06:14:07;15.30;91.00
76333;DHT22;71254;53.010;6.508;2023-07-20T06:16:32;15.40;91.00
76333;DHT22;71254;53.010;6.508;2023-07-20T06:19:00;15.60;91.30
76333;DHT22;71254;53.010;6.508;2023-07-20T06:21:26;15.70;91.10
76333;DHT22;71254;53.010;6.508;2023-07-20T06:23:51;15.90;91.00
76333;DHT22;71254;53.010;6.508;2023-07-20T06:26:17;16.20;91.00
76333;DHT22;71254;53.010;6.508;2023-07-20T06:28:43;16.50;90.40
76333;DHT22;71254;53.010;6.508;2023-07-20T06:31:08;16.80;89.50
76333;DHT22;71254;53.010;6.508;2023-07-20T06:33:34;17.20;88.10
76333;DHT22;71254;53.010;6.508;2023-07-20T06:36:03;17.50;86.80
76333;DHT22;71254;53.010;6.508;2023-07-20T06:38:29;17.70;85.30
76333;DHT22;71254;53.010;6.508;2023-07-20T06:40:55;17.90;84.30
76333;DHT22;71254;53.010;6.508;2023-07-20T06:43:21;18.10;83.10
76333;DHT22;71254;53.010;6.508;2023-07-20T06:45:51;18.30;81.80
76333;DHT22;71254;53.010;6.508;2023-07-20T06:48:18;18.40;80.10
76333;DHT22;71254;53.010;6.508;2023-07-20T06:50:43;18.60;80.80
76333;DHT22;71254;53.010;6.508;2023-07-20T06:53:09;18.70;80.30
76333;DHT22;71254;53.010;6.508;2023-07-20T06:55:35;18.90;79.50
76333;DHT22;71254;53.010;6.508;2023-07-20T06:58:01;19.00;78.60
76333;DHT22;71254;53.010;6.508;2023-07-20T07:00:26;19.10;78.00
76333;DHT22;71254;53.010;6.508;2023-07-20T07:02:52;19.20;78.10
76333;DHT22;71254;53.010;6.508;2023-07-20T07:05:17;19.40;77.70
76333;DHT22;71254;53.010;6.508;2023-07-20T07:07:43;19.50;77.00
76333;DHT22;71254;53.010;6.508;2023-07-20T07:10:09;19.70;76.50
76333;DHT22;71254;53.010;6.508;2023-07-20T07:12:35;19.80;75.90
76333;DHT22;71254;53.010;6.508;2023-07-20T07:15:03;19.90;75.30
76333;DHT22;71254;53.010;6.508;2023-07-20T07:17:31;20.00;74.80
76333;DHT22;71254;53.010;6.508;2023-07-20T07:19:58;20.00;73.60
76333;DHT22;71254;53.010;6.508;2023-07-20T07:22:24;20.00;73.00
76333;DHT22;71254;53.010;6.508;2023-07-20T07:24:49;20.10;73.00
76333;DHT22;71254;53.010;6.508;2023-07-20T07:27:15;20.10;71.20
76333;DHT22;71254;53.010;6.508;2023-07-20T07:29:44;19.90;70.30
76333;DHT22;71254;53.010;6.508;2023-07-20T07:32:10;19.90;70.20
76333;DHT22;71254;53.010;6.508;2023-07-20T07:34:36;20.00;69.50
76333;DHT22;71254;53.010;6.508;2023-07-20T07:37:03;20.20;69.70
76333;DHT22;71254;53.010;6.508;2023-07-20T07:39:29;20.30;69.30
76333;DHT22;71254;53.010;6.508;2023-07-20T07:41:56;20.50;68.40
76333;DHT22;71254;53.010;6.508;2023-07-20T07:44:21;20.70;69.00
76333;DHT22;71254;53.010;6.508;2023-07-20T07:46:47;21.00;69.40
76333;DHT22;71254;53.010;6.508;2023-07-20T07:49:13;21.30;67.90
76333;DHT22;71254;53.010;6.508;2023-07-20T07:51:39;21.50;66.00
76333;DHT22;71254;53.010;6.508;2023-07-20T07:54:05;21.80;64.80
76333;DHT22;71254;53.010;6.508;2023-07-20T07:56:31;21.90;63.60
76333;DHT22;71254;53.010;6.508;2023-07-20T07:58:56;21.90;62.60
76333;DHT22;71254;53.010;6.508;2023-07-20T08:01:22;21.60;62.30
76333;DHT22;71254;53.010;6.508;2023-07-20T08:03:48;21.50;62.10
76333;DHT22;71254;53.010;6.508;2023-07-20T08:06:14;21.40;61.70
76333;DHT22;71254;53.010;6.508;2023-07-20T08:08:39;21.10;62.80
76333;DHT22;71254;53.010;6.508;2023-07-20T08:11:05;21.00;61.70
76333;DHT22;71254;53.010;6.508;2023-07-20T08:13:31;20.70;60.40
76333;DHT22;71254;53.010;6.508;2023-07-20T08:15:57;20.60;61.90
76333;DHT22;71254;53.010;6.508;2023-07-20T08:18:23;20.70;62.50
76333;DHT22;71254;53.010;6.508;2023-07-20T08:20:48;21.10;61.40
76333;DHT22;71254;53.010;6.508;2023-07-20T08:23:14;21.30;61.30
76333;DHT22;71254;53.010;6.508;2023-07-20T08:25:40;21.50;59.70
76333;DHT22;71254;53.010;6.508;2023-07-20T08:28:18;21.50;60.00
76333;DHT22;71254;53.010;6.508;2023-07-20T08:30:46;21.50;60.80
76333;DHT22;71254;53.010;6.508;2023-07-20T08:33:17;21.80;61.10
76333;DHT22;71254;53.010;6.508;2023-07-20T08:35:44;22.10;58.70
76333;DHT22;71254;53.010;6.508;2023-07-20T08:38:10;22.30;58.00
76333;DHT22;71254;53.010;6.508;2023-07-20T08:40:41;22.40;57.80
76333;DHT22;71254;53.010;6.508;2023-07-20T08:43:09;22.70;57.10
76333;DHT22;71254;53.010;6.508;2023-07-20T08:45:36;23.00;57.10
76333;DHT22;71254;53.010;6.508;2023-07-20T08:48:05;23.50;56.20
76333;DHT22;71254;53.010;6.508;2023-07-20T08:50:32;24.00;54.30
76333;DHT22;71254;53.010;6.508;2023-07-20T08:52:59;24.40;53.30
76333;DHT22;71254;53.010;6.508;2023-07-20T08:55:28;24.20;50.40
76333;DHT22;71254;53.010;6.508;2023-07-20T08:57:55;23.70;50.70
76333;DHT22;71254;53.010;6.508;2023-07-20T09:00:22;23.30;51.60
76333;DHT22;71254;53.010;6.508;2023-07-20T09:02:52;23.30;53.00
76333;DHT22;71254;53.010;6.508;2023-07-20T09:05:23;23.60;51.80
76333;DHT22;71254;53.010;6.508;2023-07-20T09:07:49;23.60;49.70
76333;DHT22;71254;53.010;6.508;2023-07-20T09:10:15;23.20;49.60
76333;DHT22;71254;53.010;6.508;2023-07-20T09:12:43;23.00;50.30
76333;DHT22;71254;53.010;6.508;2023-07-20T09:15:11;23.20;51.60
76333;DHT22;71254;53.010;6.508;2023-07-20T09:17:37;23.60;51.50
76333;DHT22;71254;53.010;6.508;2023-07-20T09:20:07;24.10;49.80
76333;DHT22;71254;53.010;6.508;2023-07-20T09:22:36;24.60;49.90
76333;DHT22;71254;53.010;6.508;2023-07-20T09:25:11;25.20;48.20
76333;DHT22;71254;53.010;6.508;2023-07-20T09:27:45;25.30;48.30
76333;DHT22;71254;53.010;6.508;2023-07-20T09:30:12;25.10;47.80
76333;DHT22;71254;53.010;6.508;2023-07-20T09:32:49;24.80;48.20
76333;DHT22;71254;53.010;6.508;2023-07-20T09:35:20;24.80;47.60
76333;DHT22;71254;53.010;6.508;2023-07-20T09:37:59;25.00;46.30
76333;DHT22;71254;53.010;6.508;2023-07-20T09:40:28;25.40;44.70
76333;DHT22;71254;53.010;6.508;2023-07-20T09:42:55;25.80;46.20
76333;DHT22;71254;53.010;6.508;2023-07-20T09:45:44;26.20;43.60
76333;DHT22;71254;53.010;6.508;2023-07-20T09:48:10;26.40;39.80
76333;DHT22;71254;53.010;6.508;2023-07-20T09:50:43;26.40;42.20
76333;DHT22;71254;53.010;6.508;2023-07-20T09:53:13;26.70;43.00
76333;DHT22;71254;53.010;6.508;2023-07-20T09:55:41;27.10;44.10
76333;DHT22;71254;53.010;6.508;2023-07-20T09:58:09;27.30;42.60
76333;DHT22;71254;53.010;6.508;2023-07-20T10:00:37;27.10;41.90
76333;DHT22;71254;53.010;6.508;2023-07-20T10:03:05;26.90;41.50
76333;DHT22;71254;53.010;6.508;2023-07-20T10:05:35;26.50;40.90
76333;DHT22;71254;53.010;6.508;2023-07-20T10:08:02;26.20;42.40
76333;DHT22;71254;53.010;6.508;2023-07-20T10:10:31;25.90;42.30
76333;DHT22;71254;53.010;6.508;2023-07-20T10:13:00;25.70;43.90
76333;DHT22;71254;53.010;6.508;2023-07-20T10:15:36;25.40;44.90
76333;DHT22;71254;53.010;6.508;2023-07-20T10:18:11;25.00;44.50
76333;DHT22;71254;53.010;6.508;2023-07-20T10:20:40;24.60;45.40
76333;DHT22;71254;53.010;6.508;2023-07-20T10:23:07;24.30;46.40
76333;DHT22;71254;53.010;6.508;2023-07-20T10:25:33;24.10;47.20
76333;DHT22;71254;53.010;6.508;2023-07-20T10:28:05;23.80;46.80
76333;DHT22;71254;53.010;6.508;2023-07-20T10:30:35;23.60;47.50
76333;DHT22;71254;53.010;6.508;2023-07-20T10:33:05;23.40;48.10
76333;DHT22;71254;53.010;6.508;2023-07-20T10:35:52;23.30;49.20
76333;DHT22;71254;53.010;6.508;2023-07-20T10:38:18;23.80;49.00
76333;DHT22;71254;53.010;6.508;2023-07-20T10:40:54;24.40;48.80
76333;DHT22;71254;53.010;6.508;2023-07-20T10:43:20;25.00;47.40
76333;DHT22;71254;53.010;6.508;2023-07-20T10:48:19;26.00;45.40
76333;DHT22;71254;53.010;6.508;2023-07-20T10:50:48;26.60;44.80
76333;DHT22;71254;53.010;6.508;2023-07-20T10:53:31;27.00;42.90
76333;DHT22;71254;53.010;6.508;2023-07-20T10:56:13;27.30;41.90
76333;DHT22;71254;53.010;6.508;2023-07-20T10:58:40;27.30;39.50
76333;DHT22;71254;53.010;6.508;2023-07-20T11:01:07;27.20;40.90
76333;DHT22;71254;53.010;6.508;2023-07-20T11:03:34;27.40;41.50
76333;DHT22;71254;53.010;6.508;2023-07-20T11:11:28;27.00;38.90
76333;DHT22;71254;53.010;6.508;2023-07-20T11:16:49;26.30;41.10
76333;DHT22;71254;53.010;6.508;2023-07-20T11:19:24;25.80;41.40
76333;DHT22;71254;53.010;6.508;2023-07-20T11:21:55;25.40;42.10
76333;DHT22;71254;53.010;6.508;2023-07-20T11:24:22;25.00;42.90
76333;DHT22;71254;53.010;6.508;2023-07-20T11:26:52;24.50;43.70
76333;DHT22;71254;53.010;6.508;2023-07-20T11:29:20;24.30;44.40
76333;DHT22;71254;53.010;6.508;2023-07-20T11:31:46;23.90;45.30
76333;DHT22;71254;53.010;6.508;2023-07-20T11:34:18;23.80;46.30
76333;DHT22;71254;53.010;6.508;2023-07-20T11:36:49;23.60;46.80
76333;DHT22;71254;53.010;6.508;2023-07-20T11:39:20;23.50;47.00
76333;DHT22;71254;53.010;6.508;2023-07-20T11:41:48;23.70;46.60
76333;DHT22;71254;53.010;6.508;2023-07-20T11:44:22;24.40;46.90
76333;DHT22;71254;53.010;6.508;2023-07-20T11:47:07;25.40;44.40
76333;DHT22;71254;53.010;6.508;2023-07-20T11:52:04;27.10;43.30
76333;DHT22;71254;53.010;6.508;2023-07-20T11:54:30;27.60;42.80
76333;DHT22;71254;53.010;6.508;2023-07-20T11:57:00;28.00;41.20
76333;DHT22;71254;53.010;6.508;2023-07-20T11:59:25;28.10;39.90
76333;DHT22;71254;53.010;6.508;2023-07-20T12:01:52;27.90;38.70
76333;DHT22;71254;53.010;6.508;2023-07-20T12:04:18;27.50;39.30
76333;DHT22;71254;53.010;6.508;2023-07-20T12:06:45;27.10;39.50
76333;DHT22;71254;53.010;6.508;2023-07-20T12:09:14;26.70;40.20
76333;DHT22;71254;53.010;6.508;2023-07-20T12:11:43;26.20;41.20
76333;DHT22;71254;53.010;6.508;2023-07-20T12:14:10;25.90;42.10
76333;DHT22;71254;53.010;6.508;2023-07-20T12:16:36;25.40;42.90
76333;DHT22;71254;53.010;6.508;2023-07-20T12:19:08;24.90;43.20
76333;DHT22;71254;53.010;6.508;2023-07-20T12:21:35;24.50;44.90
76333;DHT22;71254;53.010;6.508;2023-07-20T12:24:04;24.30;45.70
76333;DHT22;71254;53.010;6.508;2023-07-20T12:26:31;24.30;46.90
76333;DHT22;71254;53.010;6.508;2023-07-20T12:28:57;24.70;45.90
76333;DHT22;71254;53.010;6.508;2023-07-20T12:31:24;24.90;44.90
76333;DHT22;71254;53.010;6.508;2023-07-20T12:33:51;25.00;44.50
76333;DHT22;71254;53.010;6.508;2023-07-20T12:36:17;25.40;46.00
76333;DHT22;71254;53.010;6.508;2023-07-20T12:38:44;25.70;45.50
76333;DHT22;71254;53.010;6.508;2023-07-20T12:41:11;25.60;44.70
76333;DHT22;71254;53.010;6.508;2023-07-20T12:43:44;25.40;45.10
76333;DHT22;71254;53.010;6.508;2023-07-20T12:46:10;25.20;45.80
76333;DHT22;71254;53.010;6.508;2023-07-20T12:48:37;25.10;45.10
76333;DHT22;71254;53.010;6.508;2023-07-20T12:51:04;25.00;45.30
76333;DHT22;71254;53.010;6.508;2023-07-20T12:53:31;25.20;46.60
76333;DHT22;71254;53.010;6.508;2023-07-20T12:55:58;25.40;44.70
76333;DHT22;71254;53.010;6.508;2023-07-20T12:58:24;25.30;44.70
76333;DHT22;71254;53.010;6.508;2023-07-20T13:00:49;25.10;43.70
76333;DHT22;71254;53.010;6.508;2023-07-20T13:03:15;24.80;43.60
76333;DHT22;71254;53.010;6.508;2023-07-20T13:05:41;24.50;44.10
76333;DHT22;71254;53.010;6.508;2023-07-20T13:08:07;24.20;44.60
76333;DHT22;71254;53.010;6.508;2023-07-20T13:10:33;23.90;45.40
76333;DHT22;71254;53.010;6.508;2023-07-20T13:13:00;23.70;46.10
76333;DHT22;71254;53.010;6.508;2023-07-20T13:15:30;23.50;45.60
76333;DHT22;71254;53.010;6.508;2023-07-20T13:17:59;23.30;46.60
76333;DHT22;71254;53.010;6.508;2023-07-20T13:20:26;23.20;46.80
76333;DHT22;71254;53.010;6.508;2023-07-20T13:22:51;22.90;47.90
76333;DHT22;71254;53.010;6.508;2023-07-20T13:25:17;22.80;48.90
76333;DHT22;71254;53.010;6.508;2023-07-20T13:27:44;22.70;50.20
76333;DHT22;71254;53.010;6.508;2023-07-20T13:30:10;22.70;51.00
76333;DHT22;71254;53.010;6.508;2023-07-20T13:32:42;22.70;51.30
76333;DHT22;71254;53.010;6.508;2023-07-20T13:35:08;22.80;50.90
76333;DHT22;71254;53.010;6.508;2023-07-20T13:37:33;22.80;50.70
76333;DHT22;71254;53.010;6.508;2023-07-20T13:39:59;22.80;50.30
76333;DHT22;71254;53.010;6.508;2023-07-20T13:42:25;22.70;52.70
76333;DHT22;71254;53.010;6.508;2023-07-20T13:44:51;22.60;53.80
76333;DHT22;71254;53.010;6.508;2023-07-20T13:47:16;22.50;54.00
76333;DHT22;71254;53.010;6.508;2023-07-20T13:49:43;22.50;55.20
76333;DHT22;71254;53.010;6.508;2023-07-20T13:52:09;22.40;55.00
76333;DHT22;71254;53.010;6.508;2023-07-20T13:54:34;22.40;56.30
76333;DHT22;71254;53.010;6.508;2023-07-20T13:57:00;22.80;57.00
76333;DHT22;71254;53.010;6.508;2023-07-20T13:59:25;23.70;56.00
76333;DHT22;71254;53.010;6.508;2023-07-20T14:01:51;24.30;52.30
76333;DHT22;71254;53.010;6.508;2023-07-20T14:04:17;24.30;52.00
76333;DHT22;71254;53.010;6.508;2023-07-20T14:06:42;24.10;50.90
76333;DHT22;71254;53.010;6.508;2023-07-20T14:09:08;23.90;50.70
76333;DHT22;71254;53.010;6.508;2023-07-20T14:11:34;23.80;50.60
76333;DHT22;71254;53.010;6.508;2023-07-20T14:13:59;24.10;50.60
76333;DHT22;71254;53.010;6.508;2023-07-20T14:16:25;24.60;49.50
76333;DHT22;71254;53.010;6.508;2023-07-20T14:18:51;24.60;48.30
76333;DHT22;71254;53.010;6.508;2023-07-20T14:21:20;24.40;48.30
76333;DHT22;71254;53.010;6.508;2023-07-20T14:23:46;24.30;48.50
76333;DHT22;71254;53.010;6.508;2023-07-20T14:26:13;24.30;48.70
76333;DHT22;71254;53.010;6.508;2023-07-20T14:28:38;24.20;47.90
76333;DHT22;71254;53.010;6.508;2023-07-20T14:31:04;24.20;48.60
76333;DHT22;71254;53.010;6.508;2023-07-20T14:33:30;24.80;48.40
76333;DHT22;71254;53.010;6.508;2023-07-20T14:35:56;25.30;48.00
76333;DHT22;71254;53.010;6.508;2023-07-20T14:38:22;25.30;47.50
76333;DHT22;71254;53.010;6.508;2023-07-20T14:40:47;24.90;47.80
76333;DHT22;71254;53.010;6.508;2023-07-20T14:43:13;24.60;47.10
76333;DHT22;71254;53.010;6.508;2023-07-20T14:45:40;24.10;47.10
76333;DHT22;71254;53.010;6.508;2023-07-20T14:48:06;23.70;47.20
76333;DHT22;71254;53.010;6.508;2023-07-20T14:50:33;23.30;48.20
76333;DHT22;71254;53.010;6.508;2023-07-20T14:52:58;23.10;48.80
76333;DHT22;71254;53.010;6.508;2023-07-20T14:55:24;23.00;49.00
76333;DHT22;71254;53.010;6.508;2023-07-20T14:57:50;23.00;49.90
76333;DHT22;71254;53.010;6.508;2023-07-20T15:00:16;23.40;49.60
76333;DHT22;71254;53.010;6.508;2023-07-20T15:02:42;23.80;49.80
76333;DHT22;71254;53.010;6.508;2023-07-20T15:05:10;23.90;49.20
76333;DHT22;71254;53.010;6.508;2023-07-20T15:07:36;23.80;49.80
76333;DHT22;71254;53.010;6.508;2023-07-20T15:10:06;24.00;50.20
76333;DHT22;71254;53.010;6.508;2023-07-20T15:12:31;23.90;49.20
76333;DHT22;71254;53.010;6.508;2023-07-20T15:15:05;23.90;49.50
76333;DHT22;71254;53.010;6.508;2023-07-20T15:17:32;24.60;48.00
76333;DHT22;71254;53.010;6.508;2023-07-20T15:19:57;24.60;47.30
76333;DHT22;71254;53.010;6.508;2023-07-20T15:22:23;24.20;47.30
76333;DHT22;71254;53.010;6.508;2023-07-20T15:24:49;23.90;47.90
76333;DHT22;71254;53.010;6.508;2023-07-20T15:27:15;23.60;48.70
76333;DHT22;71254;53.010;6.508;2023-07-20T15:29:40;23.30;49.40
76333;DHT22;71254;53.010;6.508;2023-07-20T15:32:06;23.20;49.90
76333;DHT22;71254;53.010;6.508;2023-07-20T15:34:34;23.00;50.30
76333;DHT22;71254;53.010;6.508;2023-07-20T15:36:59;22.80;51.00
76333;DHT22;71254;53.010;6.508;2023-07-20T15:39:25;22.70;51.50
76333;DHT22;71254;53.010;6.508;2023-07-20T15:41:52;22.50;51.70
76333;DHT22;71254;53.010;6.508;2023-07-20T15:44:18;22.40;52.00
76333;DHT22;71254;53.010;6.508;2023-07-20T15:46:46;22.30;53.00
76333;DHT22;71254;53.010;6.508;2023-07-20T15:49:11;22.20;52.90